sensor_id;sensor_type;location;lat;lon;timestamp;P1;durP1;ratioP1;P2;durP2;ratioP2
46719;SDS011;32452;51.382;-0.002;2023-05-06T00:01:20;19.88;;;3.13;;
46719;SDS011;32452;51.382;-0.002;2023-05-06T00:04:06;12.25;;;3.00;;
46719;SDS011;32452;51.382;-0.002;2023-05-06T00:06:52;14.80;;;3.53;;
46719;SDS011;32452;51.382;-0.002;2023-05-06T00:09:38;14.02;;;3.38;;
46719;SDS011;32452;51.382;-0.002;2023-05-06T00:12:24;12.02;;;3.00;;
46719;SDS011;32452;51.382;-0.002;2023-05-06T00:15:10;12.00;;;2.92;;
46719;SDS011;32452;51.382;-0.002;2023-05-06T00:17:56;15.73;;;3.63;;
46719;SDS011;32452;51.382;-0.002;2023-05-06T00:20:42;16.48;;;3.40;;
46719;SDS011;32452;51.382;-0.002;2023-05-06T00:23:28;16.52;;;2.88;;
46719;SDS011;32452;51.382;-0.002;2023-05-06T00:26:14;14.68;;;3.28;;
46719;SDS011;32452;51.382;-0.002;2023-05-06T00:29:00;13.93;;;3.03;;
46719;SDS011;32452;51.382;-0.002;2023-05-06T00:31:46;15.13;;;2.88;;
46719;SDS011;32452;51.382;-0.002;2023-05-06T00:34:31;14.77;;;3.78;;
46719;SDS011;32452;51.382;-0.002;2023-05-06T00:37:17;14.73;;;2.72;;
46719;SDS011;32452;51.382;-0.002;2023-05-06T00:40:02;15.27;;;2.63;;
46719;SDS011;32452;51.382;-0.002;2023-05-06T00:42:49;12.88;;;3.60;;
46719;SDS011;32452;51.382;-0.002;2023-05-06T00:45:35;17.63;;;3.25;;
46719;SDS011;32452;51.382;-0.002;2023-05-06T00:48:21;16.33;;;3.53;;
46719;SDS011;32452;51.382;-0.002;2023-05-06T00:51:07;15.10;;;2.65;;
46719;SDS011;32452;51.382;-0.002;2023-05-06T00:53:52;12.45;;;2.85;;
46719;SDS011;32452;51.382;-0.002;2023-05-06T00:56:38;14.68;;;3.20;;
46719;SDS011;32452;51.382;-0.002;2023-05-06T00:59:24;16.40;;;3.40;;
46719;SDS011;32452;51.382;-0.002;2023-05-06T01:02:10;15.73;;;3.40;;
46719;SDS011;32452;51.382;-0.002;2023-05-06T01:04:56;14.93;;;4.22;;
46719;SDS011;32452;51.382;-0.002;2023-05-06T01:10:56;18.73;;;4.60;;
46719;SDS011;32452;51.382;-0.002;2023-05-06T01:13:51;21.75;;;3.50;;
46719;SDS011;32452;51.382;-0.002;2023-05-06T01:16:43;18.27;;;4.95;;
46719;SDS011;32452;51.382;-0.002;2023-05-06T01:22:26;12.88;;;3.75;;
46719;SDS011;32452;51.382;-0.002;2023-05-06T01:25:20;18.48;;;4.63;;
46719;SDS011;32452;51.382;-0.002;2023-05-06T01:28:07;13.80;;;3.22;;
46719;SDS011;32452;51.382;-0.002;2023-05-06T01:30:58;17.23;;;3.97;;
46719;SDS011;32452;51.382;-0.002;2023-05-06T01:33:50;17.17;;;4.53;;
46719;SDS011;32452;51.382;-0.002;2023-05-06T01:39:41;13.00;;;4.75;;
46719;SDS011;32452;51.382;-0.002;2023-05-06T01:42:28;18.13;;;4.28;;
46719;SDS011;32452;51.382;-0.002;2023-05-06T01:45:16;19.98;;;4.15;;
46719;SDS011;32452;51.382;-0.002;2023-05-06T01:48:03;23.27;;;5.13;;
46719;SDS011;32452;51.382;-0.002;2023-05-06T01:50:51;16.25;;;4.30;;
46719;SDS011;32452;51.382;-0.002;2023-05-06T01:53:36;16.25;;;4.72;;
46719;SDS011;32452;51.382;-0.002;2023-05-06T01:56:22;17.10;;;5.05;;
46719;SDS011;32452;51.382;-0.002;2023-05-06T01:59:09;17.58;;;4.78;;
46719;SDS011;32452;51.382;-0.002;2023-05-06T02:01:55;20.77;;;6.18;;
46719;SDS011;32452;51.382;-0.002;2023-05-06T02:04:40;19.85;;;5.53;;
46719;SDS011;32452;51.382;-0.002;2023-05-06T02:07:26;15.27;;;5.15;;
46719;SDS011;32452;51.382;-0.002;2023-05-06T02:10:11;22.42;;;5.05;;
46719;SDS011;32452;51.382;-0.002;2023-05-06T02:12:57;23.33;;;5.10;;
46719;SDS011;32452;51.382;-0.002;2023-05-06T02:15:42;25.85;;;6.10;;
46719;SDS011;32452;51.382;-0.002;2023-05-06T02:18:28;18.90;;;5.80;;
46719;SDS011;32452;51.382;-0.002;2023-05-06T02:21:13;22.77;;;5.20;;
46719;SDS011;32452;51.382;-0.002;2023-05-06T02:23:59;17.70;;;5.03;;
46719;SDS011;32452;51.382;-0.002;2023-05-06T02:26:45;17.23;;;4.88;;
46719;SDS011;32452;51.382;-0.002;2023-05-06T02:29:30;26.42;;;5.78;;
46719;SDS011;32452;51.382;-0.002;2023-05-06T02:32:16;22.08;;;5.57;;
46719;SDS011;32452;51.382;-0.002;2023-05-06T02:35:01;23.35;;;5.22;;
46719;SDS011;32452;51.382;-0.002;2023-05-06T02:37:46;22.92;;;4.93;;
46719;SDS011;32452;51.382;-0.002;2023-05-06T02:40:32;25.85;;;5.07;;
46719;SDS011;32452;51.382;-0.002;2023-05-06T02:43:18;22.50;;;5.25;;
46719;SDS011;32452;51.382;-0.002;2023-05-06T02:46:04;19.48;;;5.70;;
46719;SDS011;32452;51.382;-0.002;2023-05-06T02:48:49;26.67;;;6.80;;
46719;SDS011;32452;51.382;-0.002;2023-05-06T02:51:35;23.08;;;6.20;;
46719;SDS011;32452;51.382;-0.002;2023-05-06T02:54:20;25.50;;;6.57;;
46719;SDS011;32452;51.382;-0.002;2023-05-06T02:57:06;20.98;;;5.65;;
46719;SDS011;32452;51.382;-0.002;2023-05-06T02:59:51;18.77;;;6.28;;
46719;SDS011;32452;51.382;-0.002;2023-05-06T03:02:37;18.08;;;5.55;;
46719;SDS011;32452;51.382;-0.002;2023-05-06T03:05:23;23.35;;;6.25;;
46719;SDS011;32452;51.382;-0.002;2023-05-06T03:08:09;17.33;;;4.75;;
46719;SDS011;32452;51.382;-0.002;2023-05-06T03:10:54;18.88;;;5.05;;
46719;SDS011;32452;51.382;-0.002;2023-05-06T03:13:40;18.33;;;5.60;;
46719;SDS011;32452;51.382;-0.002;2023-05-06T03:16:25;19.30;;;5.72;;
46719;SDS011;32452;51.382;-0.002;2023-05-06T03:19:11;18.40;;;4.88;;
46719;SDS011;32452;51.382;-0.002;2023-05-06T03:21:57;18.50;;;4.78;;
46719;SDS011;32452;51.382;-0.002;2023-05-06T03:24:42;20.20;;;4.97;;
46719;SDS011;32452;51.382;-0.002;2023-05-06T03:27:28;20.30;;;5.43;;
46719;SDS011;32452;51.382;-0.002;2023-05-06T03:30:13;18.05;;;5.43;;
46719;SDS011;32452;51.382;-0.002;2023-05-06T03:32:59;24.63;;;5.60;;
46719;SDS011;32452;51.382;-0.002;2023-05-06T03:35:46;22.98;;;6.47;;
46719;SDS011;32452;51.382;-0.002;2023-05-06T03:38:31;25.17;;;5.93;;
46719;SDS011;32452;51.382;-0.002;2023-05-06T03:41:17;21.90;;;6.07;;
46719;SDS011;32452;51.382;-0.002;2023-05-06T03:44:02;29.05;;;7.00;;
46719;SDS011;32452;51.382;-0.002;2023-05-06T03:46:48;27.58;;;5.60;;
46719;SDS011;32452;51.382;-0.002;2023-05-06T03:49:33;17.40;;;5.13;;
46719;SDS011;32452;51.382;-0.002;2023-05-06T03:52:19;15.52;;;5.55;;
46719;SDS011;32452;51.382;-0.002;2023-05-06T03:55:05;15.93;;;4.95;;
46719;SDS011;32452;51.382;-0.002;2023-05-06T03:57:52;19.77;;;5.97;;
46719;SDS011;32452;51.382;-0.002;2023-05-06T04:00:37;15.70;;;4.88;;
46719;SDS011;32452;51.382;-0.002;2023-05-06T04:03:23;20.48;;;5.55;;
46719;SDS011;32452;51.382;-0.002;2023-05-06T04:06:09;19.50;;;5.25;;
46719;SDS011;32452;51.382;-0.002;2023-05-06T04:08:54;20.13;;;5.13;;
46719;SDS011;32452;51.382;-0.002;2023-05-06T04:11:40;16.77;;;4.70;;
46719;SDS011;32452;51.382;-0.002;2023-05-06T04:14:25;22.58;;;5.35;;
46719;SDS011;32452;51.382;-0.002;2023-05-06T04:17:11;22.45;;;6.63;;
46719;SDS011;32452;51.382;-0.002;2023-05-06T04:19:56;17.98;;;5.68;;
46719;SDS011;32452;51.382;-0.002;2023-05-06T04:22:42;15.75;;;4.88;;
46719;SDS011;32452;51.382;-0.002;2023-05-06T04:25:28;20.83;;;4.55;;
46719;SDS011;32452;51.382;-0.002;2023-05-06T04:28:14;21.45;;;5.55;;
46719;SDS011;32452;51.382;-0.002;2023-05-06T04:31:00;19.05;;;5.82;;
46719;SDS011;32452;51.382;-0.002;2023-05-06T04:33:46;19.02;;;5.78;;
46719;SDS011;32452;51.382;-0.002;2023-05-06T04:36:31;21.80;;;5.88;;
46719;SDS011;32452;51.382;-0.002;2023-05-06T04:39:17;19.33;;;5.38;;
46719;SDS011;32452;51.382;-0.002;2023-05-06T04:42:02;17.48;;;5.40;;
46719;SDS011;32452;51.382;-0.002;2023-05-06T04:44:48;19.35;;;5.97;;
46719;SDS011;32452;51.382;-0.002;2023-05-06T04:47:33;16.95;;;4.70;;
46719;SDS011;32452;51.382;-0.002;2023-05-06T04:50:19;17.05;;;4.93;;
46719;SDS011;32452;51.382;-0.002;2023-05-06T04:53:05;19.67;;;4.57;;
46719;SDS011;32452;51.382;-0.002;2023-05-06T04:55:50;20.55;;;4.90;;
46719;SDS011;32452;51.382;-0.002;2023-05-06T04:58:36;17.58;;;4.95;;
46719;SDS011;32452;51.382;-0.002;2023-05-06T05:01:21;18.02;;;5.63;;
46719;SDS011;32452;51.382;-0.002;2023-05-06T05:04:07;20.08;;;5.30;;
46719;SDS011;32452;51.382;-0.002;2023-05-06T05:06:53;17.20;;;4.82;;
46719;SDS011;32452;51.382;-0.002;2023-05-06T05:09:38;16.60;;;4.85;;
46719;SDS011;32452;51.382;-0.002;2023-05-06T05:12:24;19.13;;;4.78;;
46719;SDS011;32452;51.382;-0.002;2023-05-06T05:15:10;18.77;;;4.47;;
46719;SDS011;32452;51.382;-0.002;2023-05-06T05:17:55;21.48;;;5.10;;
46719;SDS011;32452;51.382;-0.002;2023-05-06T05:20:41;17.58;;;4.85;;
46719;SDS011;32452;51.382;-0.002;2023-05-06T05:23:27;19.95;;;5.25;;
46719;SDS011;32452;51.382;-0.002;2023-05-06T05:26:12;18.83;;;5.68;;
46719;SDS011;32452;51.382;-0.002;2023-05-06T05:28:58;18.33;;;4.70;;
46719;SDS011;32452;51.382;-0.002;2023-05-06T05:31:44;24.48;;;6.45;;
46719;SDS011;32452;51.382;-0.002;2023-05-06T05:34:29;22.35;;;5.65;;
46719;SDS011;32452;51.382;-0.002;2023-05-06T05:37:15;17.85;;;4.75;;
46719;SDS011;32452;51.382;-0.002;2023-05-06T05:40:00;23.27;;;5.55;;
46719;SDS011;32452;51.382;-0.002;2023-05-06T05:42:47;14.18;;;4.00;;
46719;SDS011;32452;51.382;-0.002;2023-05-06T05:45:32;18.35;;;4.82;;
46719;SDS011;32452;51.382;-0.002;2023-05-06T05:48:18;19.23;;;5.20;;
46719;SDS011;32452;51.382;-0.002;2023-05-06T05:51:03;18.70;;;4.18;;
46719;SDS011;32452;51.382;-0.002;2023-05-06T05:53:49;18.00;;;4.38;;
46719;SDS011;32452;51.382;-0.002;2023-05-06T05:56:35;12.30;;;3.97;;
46719;SDS011;32452;51.382;-0.002;2023-05-06T05:59:21;19.65;;;4.68;;
46719;SDS011;32452;51.382;-0.002;2023-05-06T06:02:06;15.88;;;3.78;;
46719;SDS011;32452;51.382;-0.002;2023-05-06T06:04:52;18.50;;;4.22;;
46719;SDS011;32452;51.382;-0.002;2023-05-06T06:07:38;17.15;;;5.82;;
46719;SDS011;32452;51.382;-0.002;2023-05-06T06:10:24;16.08;;;4.10;;
46719;SDS011;32452;51.382;-0.002;2023-05-06T06:13:09;19.25;;;4.82;;
46719;SDS011;32452;51.382;-0.002;2023-05-06T06:15:55;17.02;;;4.13;;
46719;SDS011;32452;51.382;-0.002;2023-05-06T06:18:41;18.38;;;3.70;;
46719;SDS011;32452;51.382;-0.002;2023-05-06T06:21:27;14.27;;;3.45;;
46719;SDS011;32452;51.382;-0.002;2023-05-06T06:24:12;18.60;;;4.38;;
46719;SDS011;32452;51.382;-0.002;2023-05-06T06:26:58;15.00;;;3.85;;
46719;SDS011;32452;51.382;-0.002;2023-05-06T06:29:46;22.13;;;4.10;;
46719;SDS011;32452;51.382;-0.002;2023-05-06T06:32:33;18.05;;;4.38;;
46719;SDS011;32452;51.382;-0.002;2023-05-06T06:35:19;17.80;;;4.15;;
46719;SDS011;32452;51.382;-0.002;2023-05-06T06:38:05;17.77;;;4.38;;
46719;SDS011;32452;51.382;-0.002;2023-05-06T06:40:50;16.33;;;4.35;;
46719;SDS011;32452;51.382;-0.002;2023-05-06T06:43:36;16.85;;;5.00;;
46719;SDS011;32452;51.382;-0.002;2023-05-06T06:46:21;14.63;;;4.63;;
46719;SDS011;32452;51.382;-0.002;2023-05-06T06:49:07;15.43;;;4.35;;
46719;SDS011;32452;51.382;-0.002;2023-05-06T06:51:53;17.30;;;3.72;;
46719;SDS011;32452;51.382;-0.002;2023-05-06T06:54:41;16.85;;;3.80;;
46719;SDS011;32452;51.382;-0.002;2023-05-06T06:57:27;17.10;;;3.58;;
46719;SDS011;32452;51.382;-0.002;2023-05-06T07:00:12;15.85;;;4.32;;
46719;SDS011;32452;51.382;-0.002;2023-05-06T07:02:58;18.25;;;4.38;;
46719;SDS011;32452;51.382;-0.002;2023-05-06T07:05:44;17.45;;;5.18;;
46719;SDS011;32452;51.382;-0.002;2023-05-06T07:08:29;18.58;;;5.45;;
46719;SDS011;32452;51.382;-0.002;2023-05-06T07:11:15;14.93;;;3.88;;
46719;SDS011;32452;51.382;-0.002;2023-05-06T07:14:00;13.07;;;4.72;;
46719;SDS011;32452;51.382;-0.002;2023-05-06T07:16:46;15.10;;;3.88;;
46719;SDS011;32452;51.382;-0.002;2023-05-06T07:19:35;13.52;;;3.90;;
46719;SDS011;32452;51.382;-0.002;2023-05-06T07:22:20;13.32;;;3.78;;
46719;SDS011;32452;51.382;-0.002;2023-05-06T07:25:06;13.50;;;3.60;;
46719;SDS011;32452;51.382;-0.002;2023-05-06T07:27:52;13.65;;;3.83;;
46719;SDS011;32452;51.382;-0.002;2023-05-06T07:30:37;14.30;;;3.50;;
46719;SDS011;32452;51.382;-0.002;2023-05-06T07:33:23;15.65;;;3.85;;
46719;SDS011;32452;51.382;-0.002;2023-05-06T07:36:08;13.07;;;3.40;;
46719;SDS011;32452;51.382;-0.002;2023-05-06T07:38:54;11.38;;;3.60;;
46719;SDS011;32452;51.382;-0.002;2023-05-06T07:41:39;14.70;;;4.47;;
46719;SDS011;32452;51.382;-0.002;2023-05-06T07:44:25;14.07;;;4.20;;
46719;SDS011;32452;51.382;-0.002;2023-05-06T07:47:10;17.80;;;3.85;;
46719;SDS011;32452;51.382;-0.002;2023-05-06T07:49:56;11.40;;;3.13;;
46719;SDS011;32452;51.382;-0.002;2023-05-06T07:52:42;12.80;;;4.07;;
46719;SDS011;32452;51.382;-0.002;2023-05-06T07:55:28;14.40;;;3.97;;
46719;SDS011;32452;51.382;-0.002;2023-05-06T07:58:13;13.43;;;3.72;;
46719;SDS011;32452;51.382;-0.002;2023-05-06T08:00:59;13.88;;;3.17;;
46719;SDS011;32452;51.382;-0.002;2023-05-06T08:03:44;9.52;;;2.85;;
46719;SDS011;32452;51.382;-0.002;2023-05-06T08:06:30;13.82;;;3.40;;
46719;SDS011;32452;51.382;-0.002;2023-05-06T08:09:15;18.65;;;4.03;;
46719;SDS011;32452;51.382;-0.002;2023-05-06T08:12:07;17.23;;;4.22;;
46719;SDS011;32452;51.382;-0.002;2023-05-06T08:14:52;16.15;;;3.45;;
46719;SDS011;32452;51.382;-0.002;2023-05-06T08:17:38;12.20;;;3.78;;
46719;SDS011;32452;51.382;-0.002;2023-05-06T08:20:24;12.65;;;4.70;;
46719;SDS011;32452;51.382;-0.002;2023-05-06T08:23:09;17.15;;;4.97;;
46719;SDS011;32452;51.382;-0.002;2023-05-06T08:25:55;12.13;;;4.45;;
46719;SDS011;32452;51.382;-0.002;2023-05-06T08:28:41;13.60;;;5.38;;
46719;SDS011;32452;51.382;-0.002;2023-05-06T08:31:27;14.00;;;5.13;;
46719;SDS011;32452;51.382;-0.002;2023-05-06T08:34:13;17.73;;;6.22;;
46719;SDS011;32452;51.382;-0.002;2023-05-06T08:37:02;16.52;;;5.20;;
46719;SDS011;32452;51.382;-0.002;2023-05-06T08:39:49;16.90;;;5.15;;
46719;SDS011;32452;51.382;-0.002;2023-05-06T08:42:34;13.63;;;4.97;;
46719;SDS011;32452;51.382;-0.002;2023-05-06T08:45:21;15.55;;;5.95;;
46719;SDS011;32452;51.382;-0.002;2023-05-06T08:48:07;13.25;;;5.20;;
46719;SDS011;32452;51.382;-0.002;2023-05-06T08:50:53;14.35;;;5.38;;
46719;SDS011;32452;51.382;-0.002;2023-05-06T08:53:42;11.05;;;4.72;;
46719;SDS011;32452;51.382;-0.002;2023-05-06T08:56:32;16.50;;;6.03;;
46719;SDS011;32452;51.382;-0.002;2023-05-06T08:59:22;14.15;;;5.32;;
46719;SDS011;32452;51.382;-0.002;2023-05-06T09:02:08;10.88;;;4.93;;
46719;SDS011;32452;51.382;-0.002;2023-05-06T09:04:55;14.18;;;5.35;;
46719;SDS011;32452;51.382;-0.002;2023-05-06T09:07:41;13.00;;;4.53;;
46719;SDS011;32452;51.382;-0.002;2023-05-06T09:10:36;14.48;;;4.72;;
46719;SDS011;32452;51.382;-0.002;2023-05-06T09:13:28;8.88;;;3.03;;
46719;SDS011;32452;51.382;-0.002;2023-05-06T09:19:21;11.85;;;3.70;;
46719;SDS011;32452;51.382;-0.002;2023-05-06T09:22:07;13.98;;;3.40;;
46719;SDS011;32452;51.382;-0.002;2023-05-06T09:24:54;10.90;;;3.17;;
46719;SDS011;32452;51.382;-0.002;2023-05-06T09:27:41;11.25;;;2.78;;
46719;SDS011;32452;51.382;-0.002;2023-05-06T09:30:26;12.10;;;2.80;;
46719;SDS011;32452;51.382;-0.002;2023-05-06T09:33:12;10.10;;;2.90;;
46719;SDS011;32452;51.382;-0.002;2023-05-06T09:35:58;11.10;;;2.47;;
46719;SDS011;32452;51.382;-0.002;2023-05-06T09:38:46;8.10;;;2.70;;
46719;SDS011;32452;51.382;-0.002;2023-05-06T09:41:35;8.00;;;3.00;;
46719;SDS011;32452;51.382;-0.002;2023-05-06T09:44:22;10.85;;;3.42;;
46719;SDS011;32452;51.382;-0.002;2023-05-06T09:47:08;6.50;;;2.22;;
46719;SDS011;32452;51.382;-0.002;2023-05-06T09:49:55;9.25;;;2.47;;
46719;SDS011;32452;51.382;-0.002;2023-05-06T09:52:44;7.30;;;2.08;;
46719;SDS011;32452;51.382;-0.002;2023-05-06T09:55:31;5.40;;;2.08;;
46719;SDS011;32452;51.382;-0.002;2023-05-06T09:58:18;9.45;;;2.92;;
46719;SDS011;32452;51.382;-0.002;2023-05-06T10:01:05;4.03;;;1.50;;
46719;SDS011;32452;51.382;-0.002;2023-05-06T10:03:52;7.70;;;1.88;;
46719;SDS011;32452;51.382;-0.002;2023-05-06T10:06:40;8.02;;;2.10;;
46719;SDS011;32452;51.382;-0.002;2023-05-06T10:09:26;7.07;;;1.95;;
46719;SDS011;32452;51.382;-0.002;2023-05-06T10:12:13;8.35;;;1.88;;
46719;SDS011;32452;51.382;-0.002;2023-05-06T10:15:00;6.70;;;1.95;;
46719;SDS011;32452;51.382;-0.002;2023-05-06T10:17:50;7.70;;;1.95;;
46719;SDS011;32452;51.382;-0.002;2023-05-06T10:20:37;6.20;;;1.60;;
46719;SDS011;32452;51.382;-0.002;2023-05-06T10:23:36;7.35;;;1.80;;
46719;SDS011;32452;51.382;-0.002;2023-05-06T10:26:36;7.35;;;2.50;;
46719;SDS011;32452;51.382;-0.002;2023-05-06T10:29:23;6.80;;;1.85;;
46719;SDS011;32452;51.382;-0.002;2023-05-06T10:32:10;9.15;;;1.60;;
46719;SDS011;32452;51.382;-0.002;2023-05-06T10:35:00;8.18;;;1.80;;
46719;SDS011;32452;51.382;-0.002;2023-05-06T10:37:54;7.22;;;1.75;;
46719;SDS011;32452;51.382;-0.002;2023-05-06T10:40:40;6.53;;;2.45;;
46719;SDS011;32452;51.382;-0.002;2023-05-06T10:43:28;8.60;;;1.45;;
46719;SDS011;32452;51.382;-0.002;2023-05-06T10:49:24;5.22;;;1.40;;
46719;SDS011;32452;51.382;-0.002;2023-05-06T10:52:12;8.18;;;2.08;;
46719;SDS011;32452;51.382;-0.002;2023-05-06T10:54:58;8.27;;;1.95;;
46719;SDS011;32452;51.382;-0.002;2023-05-06T10:57:44;7.95;;;2.30;;
46719;SDS011;32452;51.382;-0.002;2023-05-06T11:00:30;9.07;;;2.15;;
46719;SDS011;32452;51.382;-0.002;2023-05-06T11:03:18;7.50;;;1.80;;
46719;SDS011;32452;51.382;-0.002;2023-05-06T11:06:30;8.00;;;2.33;;
46719;SDS011;32452;51.382;-0.002;2023-05-06T11:12:14;11.93;;;2.03;;
46719;SDS011;32452;51.382;-0.002;2023-05-06T11:15:23;7.38;;;1.52;;
46719;SDS011;32452;51.382;-0.002;2023-05-06T11:24:04;11.27;;;2.85;;
46719;SDS011;32452;51.382;-0.002;2023-05-06T11:26:51;7.03;;;1.88;;
46719;SDS011;32452;51.382;-0.002;2023-05-06T11:29:41;6.25;;;1.70;;
46719;SDS011;32452;51.382;-0.002;2023-05-06T11:32:27;4.95;;;1.85;;
46719;SDS011;32452;51.382;-0.002;2023-05-06T11:35:13;11.32;;;1.77;;
46719;SDS011;32452;51.382;-0.002;2023-05-06T11:37:59;7.53;;;1.60;;
46719;SDS011;32452;51.382;-0.002;2023-05-06T11:40:45;7.63;;;1.58;;
46719;SDS011;32452;51.382;-0.002;2023-05-06T11:43:32;6.07;;;1.50;;
46719;SDS011;32452;51.382;-0.002;2023-05-06T11:46:18;8.90;;;1.48;;
46719;SDS011;32452;51.382;-0.002;2023-05-06T11:49:04;9.00;;;1.77;;
46719;SDS011;32452;51.382;-0.002;2023-05-06T11:51:50;7.82;;;1.83;;
46719;SDS011;32452;51.382;-0.002;2023-05-06T11:54:39;8.10;;;2.00;;
46719;SDS011;32452;51.382;-0.002;2023-05-06T11:57:26;6.13;;;1.42;;
46719;SDS011;32452;51.382;-0.002;2023-05-06T12:00:12;6.00;;;1.58;;
46719;SDS011;32452;51.382;-0.002;2023-05-06T12:02:58;7.25;;;1.40;;
46719;SDS011;32452;51.382;-0.002;2023-05-06T12:05:44;5.43;;;1.23;;
46719;SDS011;32452;51.382;-0.002;2023-05-06T12:08:33;7.43;;;1.75;;
46719;SDS011;32452;51.382;-0.002;2023-05-06T12:11:19;8.95;;;1.42;;
46719;SDS011;32452;51.382;-0.002;2023-05-06T12:14:06;6.13;;;1.55;;
46719;SDS011;32452;51.382;-0.002;2023-05-06T12:16:53;8.77;;;1.67;;
46719;SDS011;32452;51.382;-0.002;2023-05-06T12:19:40;6.40;;;1.48;;
46719;SDS011;32452;51.382;-0.002;2023-05-06T12:22:26;6.00;;;1.42;;
46719;SDS011;32452;51.382;-0.002;2023-05-06T12:25:12;6.05;;;1.85;;
46719;SDS011;32452;51.382;-0.002;2023-05-06T12:27:59;5.15;;;1.73;;
46719;SDS011;32452;51.382;-0.002;2023-05-06T12:30:45;5.55;;;1.35;;
46719;SDS011;32452;51.382;-0.002;2023-05-06T12:33:44;7.93;;;2.05;;
46719;SDS011;32452;51.382;-0.002;2023-05-06T12:36:37;10.15;;;1.75;;
46719;SDS011;32452;51.382;-0.002;2023-05-06T12:39:32;5.65;;;1.33;;
46719;SDS011;32452;51.382;-0.002;2023-05-06T12:42:19;3.92;;;1.42;;
46719;SDS011;32452;51.382;-0.002;2023-05-06T12:45:12;4.80;;;1.20;;
46719;SDS011;32452;51.382;-0.002;2023-05-06T12:47:59;6.23;;;2.20;;
46719;SDS011;32452;51.382;-0.002;2023-05-06T12:50:46;3.28;;;1.23;;
46719;SDS011;32452;51.382;-0.002;2023-05-06T12:53:33;2.00;;;1.17;;
46719;SDS011;32452;51.382;-0.002;2023-05-06T12:56:19;2.58;;;1.02;;
46719;SDS011;32452;51.382;-0.002;2023-05-06T12:59:05;4.57;;;1.33;;
46719;SDS011;32452;51.382;-0.002;2023-05-06T13:01:51;3.25;;;1.00;;
46719;SDS011;32452;51.382;-0.002;2023-05-06T13:04:37;3.72;;;1.00;;
46719;SDS011;32452;51.382;-0.002;2023-05-06T13:07:23;2.55;;;1.00;;
46719;SDS011;32452;51.382;-0.002;2023-05-06T13:10:08;2.58;;;0.68;;
46719;SDS011;32452;51.382;-0.002;2023-05-06T13:12:55;1.92;;;0.80;;
46719;SDS011;32452;51.382;-0.002;2023-05-06T13:15:41;1.95;;;0.90;;
46719;SDS011;32452;51.382;-0.002;2023-05-06T13:18:26;1.52;;;0.65;;
46719;SDS011;32452;51.382;-0.002;2023-05-06T13:21:13;1.65;;;1.00;;
46719;SDS011;32452;51.382;-0.002;2023-05-06T13:23:59;3.20;;;1.10;;
46719;SDS011;32452;51.382;-0.002;2023-05-06T13:26:44;5.35;;;1.42;;
46719;SDS011;32452;51.382;-0.002;2023-05-06T13:29:30;1.17;;;1.08;;
46719;SDS011;32452;51.382;-0.002;2023-05-06T13:32:16;5.10;;;1.20;;
46719;SDS011;32452;51.382;-0.002;2023-05-06T13:35:01;5.47;;;1.70;;
46719;SDS011;32452;51.382;-0.002;2023-05-06T13:37:47;3.60;;;0.93;;
46719;SDS011;32452;51.382;-0.002;2023-05-06T13:40:32;5.03;;;0.90;;
46719;SDS011;32452;51.382;-0.002;2023-05-06T13:43:19;0.65;;;0.50;;
46719;SDS011;32452;51.382;-0.002;2023-05-06T13:46:06;1.80;;;0.52;;
46719;SDS011;32452;51.382;-0.002;2023-05-06T13:48:53;4.22;;;0.70;;
46719;SDS011;32452;51.382;-0.002;2023-05-06T13:51:38;1.92;;;0.50;;
46719;SDS011;32452;51.382;-0.002;2023-05-06T13:54:24;1.23;;;0.60;;
46719;SDS011;32452;51.382;-0.002;2023-05-06T13:57:10;1.33;;;0.57;;
46719;SDS011;32452;51.382;-0.002;2023-05-06T13:59:56;2.38;;;0.50;;
46719;SDS011;32452;51.382;-0.002;2023-05-06T14:02:41;1.13;;;0.80;;
46719;SDS011;32452;51.382;-0.002;2023-05-06T14:05:27;1.52;;;0.70;;
46719;SDS011;32452;51.382;-0.002;2023-05-06T14:08:13;1.30;;;0.50;;
46719;SDS011;32452;51.382;-0.002;2023-05-06T14:10:58;1.05;;;0.73;;
46719;SDS011;32452;51.382;-0.002;2023-05-06T14:13:44;2.60;;;1.00;;
46719;SDS011;32452;51.382;-0.002;2023-05-06T14:16:29;2.67;;;0.80;;
46719;SDS011;32452;51.382;-0.002;2023-05-06T14:19:14;2.80;;;1.00;;
46719;SDS011;32452;51.382;-0.002;2023-05-06T14:22:00;3.25;;;0.82;;
46719;SDS011;32452;51.382;-0.002;2023-05-06T14:24:45;2.80;;;1.00;;
46719;SDS011;32452;51.382;-0.002;2023-05-06T14:27:31;2.95;;;1.02;;
46719;SDS011;32452;51.382;-0.002;2023-05-06T14:30:16;2.17;;;1.00;;
46719;SDS011;32452;51.382;-0.002;2023-05-06T14:33:03;1.98;;;0.80;;
46719;SDS011;32452;51.382;-0.002;2023-05-06T14:35:49;3.83;;;0.73;;
46719;SDS011;32452;51.382;-0.002;2023-05-06T14:38:36;2.90;;;0.85;;
46719;SDS011;32452;51.382;-0.002;2023-05-06T14:41:22;6.55;;;1.70;;
46719;SDS011;32452;51.382;-0.002;2023-05-06T14:44:07;6.95;;;1.73;;
46719;SDS011;32452;51.382;-0.002;2023-05-06T14:46:53;5.63;;;1.63;;
46719;SDS011;32452;51.382;-0.002;2023-05-06T14:49:39;6.82;;;1.70;;
46719;SDS011;32452;51.382;-0.002;2023-05-06T14:52:24;2.35;;;1.27;;
46719;SDS011;32452;51.382;-0.002;2023-05-06T14:55:10;3.25;;;1.40;;
46719;SDS011;32452;51.382;-0.002;2023-05-06T14:57:56;4.43;;;1.60;;
46719;SDS011;32452;51.382;-0.002;2023-05-06T15:00:42;4.47;;;1.70;;
46719;SDS011;32452;51.382;-0.002;2023-05-06T15:03:29;7.55;;;2.00;;
46719;SDS011;32452;51.382;-0.002;2023-05-06T15:06:14;6.03;;;2.03;;
46719;SDS011;32452;51.382;-0.002;2023-05-06T15:09:00;6.25;;;1.25;;
46719;SDS011;32452;51.382;-0.002;2023-05-06T15:11:46;3.30;;;1.25;;
46719;SDS011;32452;51.382;-0.002;2023-05-06T15:14:31;3.35;;;1.10;;
46719;SDS011;32452;51.382;-0.002;2023-05-06T15:17:17;4.03;;;1.45;;
46719;SDS011;32452;51.382;-0.002;2023-05-06T15:20:02;4.35;;;1.30;;
46719;SDS011;32452;51.382;-0.002;2023-05-06T15:22:52;5.10;;;2.15;;
46719;SDS011;32452;51.382;-0.002;2023-05-06T15:25:38;4.63;;;1.67;;
46719;SDS011;32452;51.382;-0.002;2023-05-06T15:28:24;2.65;;;1.33;;
46719;SDS011;32452;51.382;-0.002;2023-05-06T15:31:09;4.07;;;1.20;;
46719;SDS011;32452;51.382;-0.002;2023-05-06T15:33:55;5.80;;;2.08;;
46719;SDS011;32452;51.382;-0.002;2023-05-06T15:36:44;3.10;;;1.75;;
46719;SDS011;32452;51.382;-0.002;2023-05-06T15:39:35;3.05;;;1.50;;
46719;SDS011;32452;51.382;-0.002;2023-05-06T15:42:23;4.20;;;1.70;;
46719;SDS011;32452;51.382;-0.002;2023-05-06T15:45:10;3.13;;;1.88;;
46719;SDS011;32452;51.382;-0.002;2023-05-06T15:47:55;4.15;;;1.50;;
46719;SDS011;32452;51.382;-0.002;2023-05-06T15:50:41;5.38;;;1.40;;
46719;SDS011;32452;51.382;-0.002;2023-05-06T15:53:27;6.30;;;2.08;;
46719;SDS011;32452;51.382;-0.002;2023-05-06T15:56:13;4.93;;;1.35;;
46719;SDS011;32452;51.382;-0.002;2023-05-06T15:59:02;4.18;;;1.55;;
46719;SDS011;32452;51.382;-0.002;2023-05-06T16:01:49;7.22;;;2.17;;
46719;SDS011;32452;51.382;-0.002;2023-05-06T16:04:55;3.45;;;1.60;;
46719;SDS011;32452;51.382;-0.002;2023-05-06T16:07:41;3.80;;;1.60;;
46719;SDS011;32452;51.382;-0.002;2023-05-06T16:10:27;2.97;;;1.10;;
46719;SDS011;32452;51.382;-0.002;2023-05-06T16:13:13;3.75;;;1.23;;
46719;SDS011;32452;51.382;-0.002;2023-05-06T16:15:59;2.80;;;1.33;;
46719;SDS011;32452;51.382;-0.002;2023-05-06T16:18:45;6.75;;;1.95;;
46719;SDS011;32452;51.382;-0.002;2023-05-06T16:21:31;3.03;;;1.30;;
46719;SDS011;32452;51.382;-0.002;2023-05-06T16:24:16;3.55;;;1.52;;
46719;SDS011;32452;51.382;-0.002;2023-05-06T16:27:02;1.77;;;1.10;;
46719;SDS011;32452;51.382;-0.002;2023-05-06T16:29:49;2.58;;;1.40;;
46719;SDS011;32452;51.382;-0.002;2023-05-06T16:32:35;2.75;;;1.50;;
46719;SDS011;32452;51.382;-0.002;2023-05-06T16:35:20;2.58;;;1.30;;
46719;SDS011;32452;51.382;-0.002;2023-05-06T16:38:06;3.35;;;1.60;;
46719;SDS011;32452;51.382;-0.002;2023-05-06T16:40:52;3.00;;;1.55;;
46719;SDS011;32452;51.382;-0.002;2023-05-06T16:43:38;3.10;;;1.60;;